Time;durP1;ratioP1;P1;durP2;ratioP2;P2;SDS_P1;SDS_P2;PMS_P1;PMS_P2;Temp;Humidity;BMP_temperature;BMP_pressure;BME280_temperature;BME280_humidity;BME280_pressure;Samples;Min_cycle;Max_cycle;Signal;HPM_P1;HPM_P2
2021/07/21 00:01:32;;;;;;;7.30;3.87;;;;;;;22.31;68.61;99188.75;1703932;84;21336;-82
2021/07/21 00:04:38;;;;;;;6.28;3.45;;;;;;;22.36;69.12;99208.80;1704714;84;21318;-82
2021/07/21 00:07:44;;;;;;;6.75;3.62;;;;;;;22.37;69.61;99214.08;1704349;84;21377;-82
2021/07/21 00:10:50;;;;;;;9.15;4.00;;;;;;;22.40;69.36;99214.09;1704999;84;21192;-82
2021/07/21 00:13:59;;;;;;;9.13;3.52;;;;;;;22.43;69.19;99215.73;1705063;84;21207;-82
2021/07/21 00:17:09;;;;;;;6.75;3.50;;;;;;;22.46;69.02;99208.78;1703734;84;21235;-82
2021/07/21 00:20:15;;;;;;;7.47;4.12;;;;;;;22.51;68.96;99200.41;1704862;84;21210;-82
2021/07/21 00:23:23;;;;;;;7.95;3.85;;;;;;;22.55;68.97;99190.94;1704182;84;21939;-82
2021/07/21 00:26:28;;;;;;;17.20;8.48;;;;;;;22.55;69.16;99149.97;1704614;84;21196;-82
2021/07/21 00:29:34;;;;;;;9.80;4.25;;;;;;;22.56;69.46;99111.79;1704752;84;21211;-81
2021/07/21 00:32:39;;;;;;;9.00;4.45;;;;;;;22.50;71.57;99092.87;1705055;84;21302;-82
2021/07/21 00:35:45;;;;;;;14.33;5.53;;;;;;;22.40;73.05;99096.52;1704686;84;21203;-81
2021/07/21 00:38:50;;;;;;;11.88;4.72;;;;;;;22.33;75.05;99105.72;1702297;83;21350;-82
2021/07/21 00:41:55;;;;;;;10.40;4.72;;;;;;;22.29;75.62;99127.45;1697171;84;21258;-81
2021/07/21 00:45:00;;;;;;;11.10;4.80;;;;;;;22.36;75.86;99132.19;1697401;84;21159;-81
2021/07/21 00:48:05;;;;;;;9.45;4.45;;;;;;;22.43;74.94;99156.39;1696219;84;21314;-82
2021/07/21 00:51:11;;;;;;;8.98;4.30;;;;;;;22.52;75.29;99170.59;1697420;84;21310;-81
2021/07/21 00:54:16;;;;;;;14.85;5.22;;;;;;;22.53;75.50;99161.94;1739425;82;21230;-82
2021/07/21 00:57:22;;;;;;;12.50;4.95;;;;;;;22.49;75.99;99126.03;1696602;84;21216;-81
2021/07/21 01:00:28;;;;;;;12.63;5.12;;;;;;;22.47;76.31;99116.28;1740779;82;21234;-82
2021/07/21 01:03:35;;;;;;;13.85;6.00;;;;;;;22.42;76.80;99105.98;1697379;84;21862;-81
2021/07/21 01:06:41;;;;;;;10.88;4.67;;;;;;;22.43;76.59;99110.42;1740538;82;21183;-81
2021/07/21 01:09:51;;;;;;;14.73;5.20;;;;;;;22.43;76.68;99110.42;1696081;84;21259;-82
2021/07/21 01:13:07;;;;;;;14.25;5.10;;;;;;;22.40;77.17;99102.66;1740696;82;21782;-81
2021/07/21 01:16:24;;;;;;;10.72;4.67;;;;;;;22.38;77.51;99103.48;1676934;84;21205;-81
2021/07/21 01:19:55;;;;;;;11.65;4.53;;;;;;;22.40;77.16;99098.48;1740632;82;21333;-81
2021/07/21 01:23:56;;;;;;;13.18;4.53;;;;;;;22.44;77.02;99103.20;1697203;84;21834;-82
2021/07/21 01:27:18;;;;;;;10.30;5.10;;;;;;;22.48;77.00;99101.22;1740552;82;21841;-81
2021/07/21 01:30:30;;;;;;;10.50;4.95;;;;;;;22.51;77.23;99098.70;1740798;82;21316;-81
2021/07/21 01:33:37;;;;;;;10.65;4.85;;;;;;;22.53;77.40;99099.80;1697383;84;21307;-82
2021/07/21 01:36:52;;;;;;;14.85;5.00;;;;;;;22.51;77.48;99091.74;1740674;82;21317;-80
2021/07/21 01:40:03;;;;;;;11.90;4.87;;;;;;;22.52;77.61;99085.05;1698535;84;21382;-81
2021/07/21 01:43:10;;;;;;;13.70;4.80;;;;;;;22.51;78.05;99081.99;1741604;82;21317;-81
2021/07/21 01:46:15;;;;;;;7.45;4.30;;;;;;;22.45;78.44;99077.56;1740808;82;21183;-81
2021/07/21 01:49:21;;;;;;;11.93;5.15;;;;;;;22.37;78.55;99069.22;1697474;84;21205;-82
2021/07/21 01:52:31;;;;;;;12.68;4.83;;;;;;;22.36;78.51;99076.48;1739528;82;21786;-81
2021/07/21 01:55:40;;;;;;;6.20;3.83;;;;;;;22.38;78.28;99073.67;1695829;84;21438;-82
2021/07/21 01:58:45;;;;;;;12.13;4.47;;;;;;;22.42;78.14;99066.98;1739673;82;21219;-81
2021/07/21 02:01:57;;;;;;;10.28;4.40;;;;;;;22.43;77.98;99070.03;1738648;82;21214;-81
2021/07/21 02:05:05;;;;;;;9.38;4.08;;;;;;;22.41;77.85;99063.92;1695916;84;21358;-82
2021/07/21 02:08:10;;;;;;;11.00;4.60;;;;;;;22.38;77.94;99046.38;1740174;82;21309;-81
2021/07/21 02:11:16;;;;;;;15.50;4.62;;;;;;;22.36;77.96;99048.63;1697352;84;21330;-81
2021/07/21 02:14:22;;;;;;;10.15;4.80;;;;;;;22.35;77.80;99028.86;1740733;82;21243;-81
2021/07/21 02:17:35;;;;;;;12.73;5.08;;;;;;;22.37;77.88;99035.80;1695998;84;21280;-81
2021/07/21 02:20:40;;;;;;;9.53;4.37;;;;;;;22.38;78.03;99029.66;1740561;82;21305;-81
2021/07/21 02:23:48;;;;;;;8.38;4.50;;;;;;;22.36;78.25;99026.34;1697345;84;21347;-81
2021/07/21 02:27:12;;;;;;;14.20;4.97;;;;;;;22.36;78.53;99031.91;1740762;82;21305;-81
2021/07/21 02:30:18;;;;;;;8.20;4.53;;;;;;;22.36;78.83;99045.84;1697447;84;21311;-82
2021/07/21 02:33:36;;;;;;;10.53;4.95;;;;;;;22.38;79.12;99054.73;1740142;82;21361;-81
2021/07/21 02:36:45;;;;;;;12.10;5.33;;;;;;;22.48;79.17;99097.04;1697535;84;21189;-81
2021/07/21 02:39:53;;;;;;;14.70;6.08;;;;;;;22.63;79.72;99146.61;1731630;82;21340;-82
2021/07/21 02:42:58;;;;;;;15.83;6.33;;;;;;;22.76;78.28;99149.33;1740802;82;21320;-81
2021/07/21 02:46:04;;;;;;;10.72;6.05;;;;;;;22.83;76.16;99146.25;1697321;84;21315;-82
2021/07/21 02:49:10;;;;;;;11.38;5.72;;;;;;;22.85;75.34;99142.05;1739727;82;21372;-81
2021/07/21 02:52:37;;;;;;;10.30;5.80;;;;;;;22.89;74.18;99133.98;1697593;84;21271;-82
2021/07/21 02:55:58;;;;;;;9.38;5.67;;;;;;;23.00;72.89;99173.23;1739748;82;21380;-81
2021/07/21 02:59:13;;;;;;;10.90;5.67;;;;;;;22.99;72.27;99184.69;1739899;82;21379;-82
2021/07/21 03:02:19;;;;;;;10.90;6.15;;;;;;;22.85;72.56;99164.34;1741090;82;21195;-82
2021/07/21 03:05:28;;;;;;;11.57;5.83;;;;;;;22.69;73.03;99150.20;1732806;82;21321;-82
2021/07/21 03:08:35;;;;;;;11.88;6.10;;;;;;;22.47;74.45;99135.22;1740585;82;21313;-82
2021/07/21 03:11:48;;;;;;;13.15;5.97;;;;;;;22.47;74.45;99135.22;1696092;84;21287;-82
2021/07/21 03:14:56;;;;;;;14.50;6.72;;;;;;;22.39;75.26;99110.16;1740754;82;21345;-82
2021/07/21 03:18:02;;;;;;;11.43;6.03;;;;;;;22.32;75.66;99111.59;1697367;84;21172;-82
2021/07/21 03:21:09;;;;;;;12.30;6.12;;;;;;;22.24;76.06;99104.63;1740721;82;21195;-82
2021/07/21 03:24:17;;;;;;;9.85;5.28;;;;;;;22.16;76.50;99096.84;1697384;84;21326;-82
2021/07/21 03:27:24;;;;;;;12.25;5.72;;;;;;;22.07;76.77;99117.45;1740708;81;21219;-82
2021/07/21 03:30:32;;;;;;;10.50;5.78;;;;;;;21.97;77.10;99116.05;1699573;84;21739;-82
2021/07/21 03:33:38;;;;;;;8.60;5.72;;;;;;;21.91;77.58;99114.39;1740801;82;21864;-82
2021/07/21 03:36:48;;;;;;;13.72;6.83;;;;;;;21.85;78.40;99105.78;1741597;82;21179;-82
2021/07/21 03:39:58;;;;;;;12.47;6.62;;;;;;;21.72;81.97;99086.30;1696039;84;21220;-82
2021/07/21 03:43:03;;;;;;;14.33;6.83;;;;;;;21.39;83.78;99102.98;1739427;82;21217;-81
2021/07/21 03:46:14;;;;;;;16.93;6.87;;;;;;;20.88;87.25;99119.50;1697623;84;21326;-81
2021/07/21 03:49:19;;;;;;;13.93;6.00;;;;;;;20.88;87.25;99119.50;1740196;82;22549;-81
2021/07/21 03:52:26;;;;;;;17.73;8.00;;;;;;;20.74;88.12;99133.63;1740627;82;21305;-81
2021/07/21 03:55:34;;;;;;;19.73;9.88;;;;;;;20.66;90.03;99140.55;1697356;84;21889;-81
2021/07/21 03:58:42;;;;;;;18.73;8.55;;;;;;;20.59;92.39;99149.11;1751056;81;21305;-80
2021/07/21 04:01:51;;;;;;;16.57;7.35;;;;;;;20.48;92.50;99162.67;1696303;84;21374;-81
2021/07/21 04:04:56;;;;;;;12.23;7.42;;;;;;;20.40;93.56;99269.51;1740783;82;21348;-81
2021/07/21 04:08:02;;;;;;;11.65;7.50;;;;;;;20.31;95.33;99323.02;1740696;82;21301;-81
2021/07/21 04:11:07;;;;;;;11.48;6.75;;;;;;;20.28;96.13;99322.16;1740461;82;21337;-81
2021/07/21 04:14:17;;;;;;;10.68;5.37;;;;;;;20.26;97.18;99331.31;1740683;82;21187;-82
2021/07/21 04:17:40;;;;;;;234.47;209.18;;;;;;;20.14;100.00;99340.66;1740703;82;21907;-80
2021/07/21 04:20:48;;;;;;;59.75;53.73;;;;;;;19.88;100.00;99380.33;1739488;82;21327;-81
2021/07/21 04:23:53;;;;;;;74.32;67.27;;;;;;;19.58;100.00;99341.39;1740500;82;21309;-81
2021/07/21 04:26:59;;;;;;;921.00;365.18;;;;;;;19.32;100.00;99314.42;1739882;82;21341;-81
2021/07/21 04:30:06;;;;;;;109.67;100.42;;;;;;;19.13;100.00;99323.59;1740074;82;21396;-81
2021/07/21 04:33:14;;;;;;;28.92;26.55;;;;;;;18.93;100.00;99308.91;1739082;81;21222;-79
2021/07/21 04:36:20;;;;;;;17.60;15.93;;;;;;;18.76;100.00;99223.05;1740461;82;21832;-79
2021/07/21 04:39:29;;;;;;;169.90;151.90;;;;;;;18.61;100.00;99182.12;1732468;82;21757;-79
2021/07/21 04:42:43;;;;;;;41.85;37.73;;;;;;;18.52;100.00;99207.19;1723619;81;21320;-80
2021/07/21 04:45:51;;;;;;;64.22;58.90;;;;;;;18.52;100.00;99217.42;1740573;82;21313;-79
2021/07/21 04:48:57;;;;;;;26.65;24.50;;;;;;;18.56;100.00;99194.51;1740572;82;21203;-79
2021/07/21 04:52:08;;;;;;;38.98;35.65;;;;;;;18.59;100.00;99223.09;1739257;82;21384;-80
2021/07/21 04:55:16;;;;;;;40.85;37.63;;;;;;;18.55;100.00;99253.77;1740691;82;21305;-79
2021/07/21 04:58:22;;;;;;;36.65;33.67;;;;;;;18.53;100.00;99242.08;1740752;82;21923;-80
2021/07/21 05:01:30;;;;;;;54.20;49.15;;;;;;;18.51;100.00;99253.97;1739332;82;21333;-79
2021/07/21 05:04:38;;;;;;;239.02;157.07;;;;;;;18.46;100.00;99263.59;1739277;82;21325;-79
2021/07/21 05:07:46;;;;;;;46.23;42.43;;;;;;;18.43;100.00;99273.77;1739170;81;21190;-79
2021/07/21 05:10:51;;;;;;;51.15;46.92;;;;;;;18.43;100.00;99271.00;1739838;82;21333;-79
2021/07/21 05:13:59;;;;;;;31.20;27.62;;;;;;;18.43;100.00;99249.41;1740588;82;21203;-79
2021/07/21 05:17:07;;;;;;;21.97;20.00;;;;;;;18.40;100.00;99250.77;1741827;81;21187;-79
2021/07/21 05:20:15;;;;;;;79.62;70.55;;;;;;;18.37;100.00;99218.88;1740461;82;21309;-79
2021/07/21 05:23:22;;;;;;;22.98;21.02;;;;;;;18.35;100.00;99167.09;1740594;82;21320;-79
2021/07/21 05:26:29;;;;;;;19.60;17.70;;;;;;;18.32;100.00;99146.00;1740631;82;21584;-78
2021/07/21 05:29:37;;;;;;;15.25;12.30;;;;;;;18.25;100.00;99146.16;1740419;82;21203;-80
2021/07/21 05:32:44;;;;;;;13.55;12.13;;;;;;;18.20;100.00;99136.95;1769880;79;21823;-79
2021/07/21 05:35:51;;;;;;;21.55;19.45;;;;;;;18.13;100.00;99143.52;1771744;79;21319;-78
2021/07/21 05:38:58;;;;;;;14.98;13.62;;;;;;;18.12;100.00;99139.63;1806850;79;21247;-78
2021/07/21 05:42:04;;;;;;;28.55;26.10;;;;;;;18.13;100.00;99186.41;1741936;81;21165;-78
2021/07/21 05:45:09;;;;;;;47.73;43.85;;;;;;;18.24;100.00;99257.97;1704342;83;21783;-78
2021/07/21 05:48:15;;;;;;;73.33;67.27;;;;;;;18.35;100.00;99299.13;1732692;81;21327;-78
2021/07/21 05:51:30;;;;;;;100.58;92.53;;;;;;;18.49;100.00;99332.83;1766674;81;21276;-78
2021/07/21 05:54:40;;;;;;;127.02;108.55;;;;;;;18.59;100.00;99297.02;1770856;81;21256;-78
2021/07/21 05:57:47;;;;;;;167.30;152.45;;;;;;;18.65;100.00;99271.91;1704713;84;22483;-79
2021/07/21 06:00:53;;;;;;;207.90;189.72;;;;;;;18.61;100.00;99256.89;1739976;82;21280;-79
2021/07/21 06:04:00;;;;;;;67.37;61.65;;;;;;;18.57;100.00;99240.48;1755996;79;21292;-80
2021/07/21 06:07:08;;;;;;;120.35;92.37;;;;;;;18.56;100.00;99209.73;1738256;81;21209;-80
2021/07/21 06:10:32;;;;;;;45.05;41.08;;;;;;;18.54;100.00;99173.72;1703962;84;21274;-80
2021/07/21 06:13:37;;;;;;;45.80;41.80;;;;;;;18.52;100.00;99156.51;1712454;82;21314;-81
2021/07/21 06:16:42;;;;;;;30.68;27.82;;;;;;;18.48;100.00;99135.41;1741229;81;21183;-80
2021/07/21 06:19:47;;;;;;;50.90;46.83;;;;;;;18.46;100.00;99119.61;1737857;81;21307;-82
2021/07/21 06:25:46;;;;;;;202.97;184.95;;;;;;;18.53;100.00;99141.02;1871048;76;28067;-81
2021/07/21 06:29:01;;;;;;;46.18;42.25;;;;;;;18.54;100.00;99142.72;1787148;77;21354;-81
2021/07/21 06:32:12;;;;;;;53.87;49.38;;;;;;;18.59;100.00;99141.39;1815795;77;21133;-81
2021/07/21 06:35:19;;;;;;;126.70;116.67;;;;;;;18.67;100.00;99148.95;1803182;78;21838;-78
2021/07/21 06:38:28;;;;;;;73.95;67.95;;;;;;;18.78;100.00;99159.11;1796148;79;21320;-80
2021/07/21 06:41:34;;;;;;;301.15;273.57;;;;;;;18.90;100.00;99170.33;1793089;79;21315;-80
2021/07/21 06:44:42;;;;;;;166.03;152.75;;;;;;;18.99;100.00;99201.20;1802439;79;21382;-81
2021/07/21 06:47:51;;;;;;;152.97;140.92;;;;;;;19.07;100.00;99222.09;1802793;79;21298;-81
2021/07/21 06:52:22;;;;;;;198.62;182.45;;;;;;;19.18;100.00;99224.42;1877056;76;28042;-81
2021/07/21 06:55:30;;;;;;;73.75;67.78;;;;;;;19.15;100.00;99226.63;1842591;77;21165;-81
2021/07/21 06:58:35;;;;;;;49.60;45.60;;;;;;;19.19;100.00;99244.95;1794299;79;21267;-82
2021/07/21 07:01:43;;;;;;;87.88;80.67;;;;;;;19.21;100.00;99235.01;1793752;79;22650;-81
2021/07/21 07:04:56;;;;;;;66.35;60.73;;;;;;;19.21;100.00;99208.67;1814941;79;21200;-80
2021/07/21 07:08:19;;;;;;;33.80;29.90;;;;;;;19.21;100.00;99176.80;1804597;79;21216;-79
2021/07/21 07:11:42;;;;;;;61.40;56.15;;;;;;;19.20;100.00;99162.11;1814886;78;21291;-81
2021/07/21 07:14:50;;;;;;;36.58;33.33;;;;;;;19.19;100.00;99136.84;1805108;79;21339;-81
2021/07/21 07:17:55;;;;;;;18.92;16.67;;;;;;;19.16;100.00;99120.76;1791960;78;21312;-81
2021/07/21 07:21:01;;;;;;;19.90;18.17;;;;;;;19.12;100.00;99134.84;1808664;79;21334;-81
2021/07/21 07:24:07;;;;;;;41.42;37.75;;;;;;;19.10;100.00;99123.16;1801379;79;21311;-81
2021/07/21 07:27:12;;;;;;;45.25;41.33;;;;;;;19.06;100.00;99106.25;1812712;79;21261;-79
2021/07/21 07:30:21;;;;;;;43.83;39.83;;;;;;;19.07;100.00;99117.61;1816695;79;21826;-81
2021/07/21 07:33:27;;;;;;;33.95;31.00;;;;;;;19.10;100.00;99130.09;1813929;79;21694;-80
2021/07/21 07:36:33;;;;;;;114.40;103.53;;;;;;;19.13;100.00;99117.11;1790322;79;21181;-81
2021/07/21 07:39:39;;;;;;;79.50;72.87;;;;;;;19.17;100.00;99120.20;1804340;79;21268;-81
2021/07/21 07:42:45;;;;;;;81.95;75.15;;;;;;;19.18;100.00;99101.92;1814695;79;21279;-81
2021/07/21 07:45:52;;;;;;;30.00;27.50;;;;;;;19.19;100.00;99104.97;1803077;79;21165;-81
2021/07/21 07:49:01;;;;;;;144.68;132.55;;;;;;;19.20;100.00;99104.45;1808521;79;21296;-81
2021/07/21 07:52:06;;;;;;;172.17;157.10;;;;;;;19.25;100.00;99104.50;1745842;81;21325;-81
2021/07/21 07:55:14;;;;;;;583.38;335.90;;;;;;;19.33;100.00;99099.84;1790568;79;21311;-81
2021/07/21 07:58:19;;;;;;;1999.90;786.28;;;;;;;19.47;100.00;99101.08;1776271;79;21332;-81
2021/07/21 08:01:25;;;;;;;1999.90;726.60;;;;;;;19.63;100.00;99107.09;1775738;79;21233;-81
2021/07/21 08:04:31;;;;;;;1999.90;841.75;;;;;;;19.85;100.00;99098.64;1780932;79;21675;-81
2021/07/21 08:07:36;;;;;;;1999.90;826.52;;;;;;;20.08;100.00;99090.48;1799534;79;21303;-81
2021/07/21 08:10:42;;;;;;;1999.90;999.90;;;;;;;20.30;100.00;99088.11;1782995;79;21450;-81
2021/07/21 08:13:47;;;;;;;1999.90;999.90;;;;;;;20.53;100.00;99091.88;1793605;79;21573;-82
2021/07/21 08:16:54;;;;;;;1999.90;999.90;;;;;;;20.85;100.00;99092.28;1785957;79;22433;-82
2021/07/21 08:19:59;;;;;;;1999.90;999.90;;;;;;;21.17;100.00;99103.17;1796528;79;21276;-82
2021/07/21 08:23:05;;;;;;;1999.90;999.90;;;;;;;21.56;100.00;99109.69;1784594;79;21299;-82
2021/07/21 08:26:11;;;;;;;1999.90;860.65;;;;;;;21.92;100.00;99107.70;1788430;79;21688;-82
2021/07/21 08:29:16;;;;;;;1999.90;999.90;;;;;;;22.24;100.00;99115.77;1774951;79;21264;-82
2021/07/21 08:32:21;;;;;;;1999.90;999.90;;;;;;;22.52;100.00;99114.86;1791256;79;21327;-83
2021/07/21 08:35:31;;;;;;;1999.90;992.75;;;;;;;22.76;100.00;99114.48;1783547;79;21256;-82
2021/07/21 08:38:37;;;;;;;1999.90;999.90;;;;;;;22.97;100.00;99119.45;1790210;79;21194;-83
2021/07/21 08:41:42;;;;;;;200.53;184.80;;;;;;;23.17;100.00;99123.52;1776330;79;21288;-83
2021/07/21 08:44:48;;;;;;;1999.90;999.90;;;;;;;23.21;100.00;99109.84;1773764;79;21236;-82
2021/07/21 08:47:54;;;;;;;1999.90;954.57;;;;;;;23.26;100.00;99113.98;1774858;79;21919;-83
2021/07/21 08:51:00;;;;;;;1999.90;999.90;;;;;;;23.40;100.00;99116.97;1787317;79;21292;-82
2021/07/21 08:54:05;;;;;;;1999.90;999.90;;;;;;;23.58;100.00;99122.43;1794623;79;21331;-83
2021/07/21 08:57:10;;;;;;;297.37;273.80;;;;;;;23.76;100.00;99132.06;1789683;79;21211;-83
2021/07/21 09:00:17;;;;;;;1999.90;933.40;;;;;;;23.93;100.00;99118.52;1802963;78;21346;-83
2021/07/21 09:03:23;;;;;;;33.38;30.05;;;;;;;24.12;100.00;99126.44;1797706;79;21678;-82
2021/07/21 09:06:29;;;;;;;101.50;93.90;;;;;;;24.19;100.00;99118.56;1799321;79;21823;-83
2021/07/21 09:09:37;;;;;;;38.28;35.17;;;;;;;24.15;100.00;99115.25;1798776;79;21165;-82
2021/07/21 09:12:48;;;;;;;223.43;207.25;;;;;;;24.15;100.00;99116.66;1800489;79;21826;-82
2021/07/21 09:15:55;;;;;;;270.63;249.70;;;;;;;24.19;100.00;99113.55;1804815;79;21854;-82
2021/07/21 09:19:02;;;;;;;19.80;16.90;;;;;;;24.26;100.00;99113.19;1777383;80;21308;-82
2021/07/21 09:22:38;;;;;;;79.60;73.57;;;;;;;24.23;100.00;99098.69;1801576;79;21308;-82
2021/07/21 09:25:44;;;;;;;31.02;28.32;;;;;;;24.26;100.00;99092.23;1802581;79;21842;-83
2021/07/21 09:28:51;;;;;;;135.00;124.80;;;;;;;24.32;100.00;99086.84;1802626;79;21284;-82
2021/07/21 09:31:58;;;;;;;125.10;115.70;;;;;;;24.37;100.00;99080.69;1805521;79;21263;-82
2021/07/21 09:35:03;;;;;;;18.12;16.62;;;;;;;24.48;100.00;99078.03;1805868;79;21154;-82
2021/07/21 09:38:18;;;;;;;67.50;62.30;;;;;;;24.56;100.00;99080.75;1797143;79;21327;-83
2021/07/21 09:41:23;;;;;;;1999.90;999.90;;;;;;;24.70;100.00;99089.22;1727708;81;21390;-83
2021/07/21 09:44:46;;;;;;;1999.90;999.90;;;;;;;24.83;100.00;99090.45;1717702;82;21333;-82
2021/07/21 09:48:01;;;;;;;1999.90;999.90;;;;;;;25.00;100.00;99094.99;1767359;81;21838;-83
2021/07/21 09:51:06;;;;;;;1999.90;999.90;;;;;;;25.10;98.67;99086.48;1733539;82;21299;-83
2021/07/21 09:54:22;;;;;;;1999.90;999.90;;;;;;;25.22;96.44;99082.68;1737995;82;21664;-84
2021/07/21 09:57:28;;;;;;;1999.90;999.90;;;;;;;25.38;88.71;99081.04;1801629;79;21723;-85
2021/07/21 10:00:39;;;;;;;1999.90;999.90;;;;;;;25.54;88.54;99083.84;1782843;79;21314;-84
2021/07/21 10:03:45;;;;;;;1999.90;999.90;;;;;;;25.70;88.55;99088.08;1783113;79;21268;-82
2021/07/21 10:06:51;;;;;;;1999.90;999.90;;;;;;;25.86;89.95;99082.23;1801562;79;21838;-83
2021/07/21 10:09:56;;;;;;;1999.90;999.90;;;;;;;26.01;91.18;99083.36;1778597;79;21609;-83
2021/07/21 10:13:13;;;;;;;1999.90;999.90;;;;;;;26.13;90.39;99078.67;1773957;79;21840;-84
2021/07/21 10:16:19;;;;;;;1999.90;999.90;;;;;;;26.17;90.43;99072.14;1770271;81;21546;-83
2021/07/21 10:19:35;;;;;;;1999.90;999.90;;;;;;;26.22;91.85;99069.24;1777841;79;21272;-84
2021/07/21 10:22:40;;;;;;;1999.90;999.90;;;;;;;26.30;91.87;99073.85;1736081;82;21343;-84
2021/07/21 10:25:46;;;;;;;1999.90;999.90;;;;;;;26.35;89.33;99071.81;1769807;81;21727;-83
2021/07/21 10:28:51;;;;;;;1999.90;999.90;;;;;;;26.39;89.62;99067.79;1787215;79;21177;-84
2021/07/21 10:31:56;;;;;;;1999.90;999.90;;;;;;;26.45;91.36;99056.78;1801920;79;21339;-84
2021/07/21 10:35:01;;;;;;;1999.90;999.90;;;;;;;26.58;91.15;99052.30;1799219;79;21276;-84
2021/07/21 10:38:07;;;;;;;1999.90;999.90;;;;;;;26.73;89.28;99050.02;1737053;82;21694;-84
2021/07/21 10:41:13;;;;;;;1999.90;999.90;;;;;;;26.83;86.11;99043.93;1791299;79;21279;-85
2021/07/21 10:44:22;;;;;;;1999.90;999.90;;;;;;;26.91;86.66;99048.77;1769112;81;21299;-85
2021/07/21 10:47:31;;;;;;;1999.90;999.90;;;;;;;27.01;87.70;99056.98;1782798;79;21241;-85
2021/07/21 10:54:02;;;;;;;1999.90;999.90;;;;;;;27.19;84.61;99037.77;1774651;79;21849;-85
2021/07/21 11:00:28;;;;;;;1999.90;999.90;;;;;;;27.30;82.58;99030.53;1809249;79;21327;-84
2021/07/21 11:03:36;;;;;;;1999.90;999.90;;;;;;;27.36;83.14;99032.05;1797724;79;21205;-85
2021/07/21 11:06:57;;;;;;;1999.90;999.90;;;;;;;27.38;84.39;99032.55;1793180;79;21279;-85
2021/07/21 11:10:02;;;;;;;1999.90;999.90;;;;;;;27.40;83.72;99031.67;1792547;79;21314;-85
2021/07/21 11:13:06;;;;;;;75.28;69.72;;;;;;;27.42;86.29;99030.19;1760850;79;21271;-83
2021/07/21 11:16:11;;;;;;;1999.90;943.02;;;;;;;27.46;82.53;99036.02;1789154;78;21173;-82
2021/07/21 11:19:56;;;;;;;1626.88;661.40;;;;;;;27.51;84.37;99041.50;1802595;79;21795;-83
2021/07/21 11:23:01;;;;;;;94.87;87.85;;;;;;;27.59;84.67;99035.13;1800171;78;21557;-83
2021/07/21 11:26:44;;;;;;;340.98;313.52;;;;;;;27.70;84.76;99037.91;1788473;79;21256;-83
2021/07/21 11:29:51;;;;;;;387.52;355.67;;;;;;;27.81;87.32;99036.27;1760398;81;21240;-85
2021/07/21 11:32:57;;;;;;;74.67;69.05;;;;;;;27.91;88.59;99041.64;1749897;81;21253;-84
2021/07/21 11:36:02;;;;;;;134.55;124.35;;;;;;;28.06;88.29;99037.59;1735369;81;21635;-85
2021/07/21 11:39:08;;;;;;;43.00;39.45;;;;;;;28.06;88.29;99037.59;1729477;81;21624;-85
2021/07/21 11:42:38;;;;;;;16.25;14.75;;;;;;;28.15;87.58;99039.87;1741006;81;21691;-85
2021/07/21 11:45:43;;;;;;;63.83;58.75;;;;;;;28.22;85.33;99036.83;1746766;81;21180;-85
2021/07/21 11:48:48;;;;;;;327.90;294.05;;;;;;;28.26;87.66;99042.05;1746249;81;21196;-86
2021/07/21 11:52:02;;;;;;;105.37;97.53;;;;;;;28.36;87.80;99031.71;1727208;81;21344;-85
2021/07/21 11:55:09;;;;;;;196.05;180.42;;;;;;;28.40;87.78;99029.91;1746032;81;21298;-84
2021/07/21 11:58:20;;;;;;;226.32;208.47;;;;;;;28.45;85.96;99025.54;1733506;81;21213;-85
2021/07/21 12:01:34;;;;;;;62.53;57.78;;;;;;;28.41;84.95;99024.53;1733607;82;21283;-83
2021/07/21 12:04:40;;;;;;;7.70;6.97;;;;;;;28.39;86.05;99024.86;1727862;82;21973;-84
2021/07/21 12:07:47;;;;;;;40.25;37.05;;;;;;;28.43;82.24;99023.64;1724076;82;21846;-84
2021/07/21 12:10:53;;;;;;;19.82;18.15;;;;;;;28.34;84.47;99024.16;1728117;82;21347;-84
2021/07/21 12:14:13;;;;;;;35.17;32.25;;;;;;;28.33;85.56;99029.53;1787252;79;21289;-85
2021/07/21 12:17:14;;;;;;;49.70;45.88;;;;;;;28.33;85.14;99030.94;1792469;79;21316;-85
2021/07/21 12:20:22;;;;;;;17.77;16.20;;;;;;;28.34;86.04;99020.80;1777706;79;21175;-83
2021/07/21 12:23:30;;;;;;;17.98;16.20;;;;;;;28.36;83.73;99028.89;1783165;79;21271;-84
2021/07/21 12:26:51;;;;;;;8.03;7.23;;;;;;;28.35;83.33;99020.22;1784930;79;21287;-84
2021/07/21 12:29:56;;;;;;;45.00;41.53;;;;;;;28.38;84.60;99026.02;1792525;79;21871;-84
2021/07/21 12:33:02;;;;;;;8.98;5.28;;;;;;;28.49;85.20;99026.55;1783085;79;21272;-85
2021/07/21 12:36:15;;;;;;;8.85;7.30;;;;;;;28.58;82.87;99019.55;1792942;79;21221;-83
2021/07/21 12:39:21;;;;;;;6.28;5.03;;;;;;;28.69;84.33;99030.73;1789944;79;21153;-84
2021/07/21 12:42:32;;;;;;;7.53;5.28;;;;;;;28.68;79.84;99027.09;1727222;82;21708;-84
2021/07/21 12:45:39;;;;;;;15.83;14.33;;;;;;;28.71;83.27;99015.20;1788350;79;21291;-85
2021/07/21 12:48:46;;;;;;;7.97;7.17;;;;;;;28.74;84.16;99024.38;1787240;79;22493;-84
2021/07/21 12:51:51;;;;;;;7.12;6.40;;;;;;;28.78;84.38;99017.52;1787014;79;21170;-85
2021/07/21 12:55:03;;;;;;;8.35;7.53;;;;;;;28.80;83.24;99015.80;1778784;79;21236;-84
2021/07/21 12:58:14;;;;;;;4.97;4.47;;;;;;;28.85;84.90;99010.02;1799631;79;21330;-85
2021/07/21 13:01:20;;;;;;;9.53;6.08;;;;;;;28.96;82.65;99005.75;1769371;79;21278;-84
2021/07/21 13:04:38;;;;;;;9.35;8.45;;;;;;;29.02;82.04;99003.01;1792823;79;21264;-85
2021/07/21 13:07:44;;;;;;;5.40;4.90;;;;;;;29.06;83.89;99001.20;1794674;79;21205;-86
2021/07/21 13:10:50;;;;;;;5.90;5.30;;;;;;;29.13;82.04;98997.91;1786515;79;21776;-85
2021/07/21 13:14:07;;;;;;;7.17;5.10;;;;;;;29.16;80.69;98991.01;1788171;79;21196;-86
2021/07/21 13:17:21;;;;;;;5.60;4.90;;;;;;;29.16;81.29;98985.96;1792516;79;21834;-83
2021/07/21 13:20:32;;;;;;;7.33;4.67;;;;;;;29.12;79.23;98989.19;1778495;79;21150;-83
2021/07/21 13:23:37;;;;;;;7.30;4.60;;;;;;;29.03;77.25;98977.95;1798680;79;21304;-83
2021/07/21 13:26:43;;;;;;;6.10;5.10;;;;;;;28.96;78.70;98972.80;1797188;79;21320;-83
2021/07/21 13:29:49;;;;;;;7.30;5.37;;;;;;;28.93;79.54;98975.41;1787969;80;21245;-83
2021/07/21 13:32:55;;;;;;;5.97;4.85;;;;;;;28.93;81.87;98976.81;1787289;80;21149;-83
2021/07/21 13:36:10;;;;;;;8.58;5.50;;;;;;;28.92;77.98;98968.12;1787292;80;21292;-82
2021/07/21 13:39:16;;;;;;;6.83;4.90;;;;;;;28.91;81.43;98966.48;1787432;80;21162;-82
2021/07/21 13:42:22;;;;;;;5.42;4.62;;;;;;;28.89;80.23;98960.34;1786551;80;21891;-83
2021/07/21 13:45:27;;;;;;;7.75;5.40;;;;;;;28.89;78.53;98956.97;1787171;80;21823;-83
2021/07/21 13:48:36;;;;;;;8.10;4.95;;;;;;;28.86;77.36;98951.99;1739986;80;21300;-82
2021/07/21 13:51:50;;;;;;;7.42;5.08;;;;;;;28.81;79.65;98947.11;1786929;80;21241;-82
2021/07/21 13:54:56;;;;;;;5.28;4.78;;;;;;;28.74;81.10;98959.66;1787140;80;21828;-83
2021/07/21 13:58:02;;;;;;;5.62;4.80;;;;;;;28.71;80.83;98965.97;1786092;80;22612;-82
2021/07/21 14:01:07;;;;;;;8.65;3.90;;;;;;;28.68;78.29;98975.05;1781927;80;21634;-83
2021/07/21 14:04:13;;;;;;;4.50;4.08;;;;;;;28.60;75.16;98980.08;1748115;82;21820;-83
2021/07/21 14:07:19;;;;;;;5.58;4.03;;;;;;;28.57;78.66;98980.75;1750359;82;21321;-82
2021/07/21 14:10:24;;;;;;;5.10;3.80;;;;;;;28.52;75.71;98988.77;1751119;82;21308;-83
2021/07/21 14:13:22;;;;;;;5.58;4.25;;;;;;;28.51;77.28;98987.66;1750459;82;21214;-83
2021/07/21 14:16:29;;;;;;;7.05;4.53;;;;;;;28.52;78.45;98987.94;1748074;82;21852;-82
2021/07/21 14:19:35;;;;;;;6.00;4.42;;;;;;;28.50;78.26;98992.47;1734785;82;21485;-82
2021/07/21 14:22:40;;;;;;;5.30;3.70;;;;;;;28.49;77.18;99003.47;1747885;82;21840;-82
2021/07/21 14:25:48;;;;;;;4.33;3.85;;;;;;;28.49;77.91;99008.27;1747801;82;21840;-83
2021/07/21 14:28:55;;;;;;;5.55;4.28;;;;;;;28.47;78.30;99019.03;1746710;82;21518;-83
2021/07/21 14:32:00;;;;;;;4.95;3.95;;;;;;;28.42;76.51;99008.76;1747788;82;21191;-82
2021/07/21 14:35:06;;;;;;;5.62;4.10;;;;;;;28.42;76.51;99008.76;1747958;82;21255;-82